createdAt,value
2019-03-17T00:04:37.433Z,8.50
2019-03-17T00:07:13.009Z,8.50
2019-03-17T00:09:47.466Z,8.50
2019-03-17T00:12:34.478Z,8.50
2019-03-17T00:15:09.987Z,8.40
2019-03-17T00:17:44.561Z,8.40
2019-03-17T00:20:21.079Z,8.50
2019-03-17T00:22:56.111Z,8.40
2019-03-17T00:25:34.428Z,8.40
2019-03-17T00:28:10.276Z,8.30
2019-03-17T00:30:46.596Z,8.30
2019-03-17T00:33:20.138Z,8.30
2019-03-17T00:36:02.135Z,8.30
2019-03-17T00:38:37.171Z,8.20
2019-03-17T00:41:16.298Z,8.30
2019-03-17T00:43:51.125Z,8.20
2019-03-17T00:46:27.389Z,8.10
2019-03-17T00:49:06.576Z,8.00
2019-03-17T00:51:43.398Z,7.70
2019-03-17T00:54:21.295Z,7.60
2019-03-17T00:56:56.328Z,7.60
2019-03-17T00:59:31.851Z,7.50
2019-03-17T01:02:06.847Z,7.30
2019-03-17T01:04:55.492Z,7.30
2019-03-17T01:07:21.789Z,7.30
2019-03-17T01:09:55.910Z,7.30
2019-03-17T01:12:30.629Z,7.20
2019-03-17T01:15:05.924Z,7.30
2019-03-17T01:17:41.512Z,7.30
2019-03-17T01:20:18.011Z,7.30
2019-03-17T01:22:56.494Z,7.40
2019-03-17T01:25:30.506Z,7.40
2019-03-17T01:28:06.766Z,7.40
2019-03-17T01:30:41.026Z,7.50
2019-03-17T01:33:16.051Z,7.50
2019-03-17T01:35:51.253Z,7.50
2019-03-17T01:38:26.497Z,7.30
2019-03-17T01:41:04.599Z,7.20
2019-03-17T01:43:40.654Z,7.10
2019-03-17T01:46:16.711Z,7.00
2019-03-17T01:48:52.929Z,6.90
2019-03-17T01:51:28.008Z,6.80
2019-03-17T01:54:03.654Z,6.80
2019-03-17T01:56:39.712Z,6.70
2019-03-17T01:59:16.184Z,6.80
2019-03-17T02:01:54.097Z,6.90
2019-03-17T02:04:28.327Z,6.80
2019-03-17T02:07:02.333Z,6.60
2019-03-17T02:09:37.005Z,6.70
2019-03-17T02:12:15.861Z,6.70
2019-03-17T02:14:52.356Z,6.70
2019-03-17T02:17:28.787Z,6.70
2019-03-17T02:20:03.329Z,6.80
2019-03-17T02:22:37.832Z,6.70
2019-03-17T02:25:13.330Z,6.70
2019-03-17T02:27:48.329Z,6.60
2019-03-17T02:30:27.917Z,6.60
2019-03-17T02:33:08.222Z,6.60
2019-03-17T02:35:43.332Z,6.60
2019-03-17T02:38:17.341Z,6.60
2019-03-17T02:40:51.332Z,6.70
2019-03-17T02:43:26.342Z,6.70
2019-03-17T02:46:03.334Z,6.70
2019-03-17T02:48:38.829Z,6.70
2019-03-17T02:51:14.873Z,6.80
2019-03-17T02:53:50.931Z,6.90
2019-03-17T02:56:25.555Z,6.80
2019-03-17T02:59:02.856Z,6.80
2019-03-17T03:01:39.339Z,6.90
2019-03-17T03:04:14.750Z,6.90
2019-03-17T03:06:52.243Z,7.10
2019-03-17T03:09:28.299Z,7.10
2019-03-17T03:12:02.345Z,7.10
2019-03-17T03:14:37.763Z,6.90
2019-03-17T03:17:11.983Z,7.00
2019-03-17T03:19:52.123Z,6.90
2019-03-17T03:22:29.823Z,6.80
2019-03-17T03:25:06.900Z,6.80
2019-03-17T03:27:41.349Z,6.80
2019-03-17T03:30:15.942Z,6.80
2019-03-17T03:32:50.974Z,6.80
2019-03-17T03:35:31.951Z,6.80
2019-03-17T03:38:09.344Z,6.90
2019-03-17T03:40:44.889Z,7.00
2019-03-17T03:43:25.035Z,7.00
2019-03-17T03:45:59.865Z,7.00
2019-03-17T03:48:37.983Z,7.00
2019-03-17T03:51:15.882Z,7.00
2019-03-17T03:53:52.365Z,7.00
2019-03-17T03:56:28.346Z,7.10
2019-03-17T03:59:05.346Z,7.00
2019-03-17T04:01:39.894Z,7.10
2019-03-17T04:04:14.348Z,7.10
2019-03-17T04:06:51.600Z,7.10
2019-03-17T04:09:29.347Z,7.10
2019-03-17T04:12:04.365Z,7.00
2019-03-17T04:14:40.346Z,7.00
2019-03-17T04:17:16.865Z,7.00
2019-03-17T04:19:51.889Z,7.10
2019-03-17T04:22:27.368Z,7.10
2019-03-17T04:25:02.774Z,7.10
2019-03-17T04:27:38.013Z,7.10
2019-03-17T04:30:12.349Z,7.20
2019-03-17T04:32:48.079Z,7.10
2019-03-17T04:35:23.931Z,7.10
2019-03-17T04:38:00.808Z,7.00
2019-03-17T04:40:37.890Z,6.70
2019-03-17T04:43:16.817Z,6.60
2019-03-17T04:45:54.277Z,6.60
2019-03-17T04:48:28.321Z,6.50
2019-03-17T04:51:06.342Z,6.40
2019-03-17T04:53:41.863Z,6.30
2019-03-17T04:56:16.351Z,6.20
2019-03-17T04:58:51.349Z,6.20
2019-03-17T05:01:26.759Z,6.20
2019-03-17T05:04:00.769Z,6.00
2019-03-17T05:06:37.850Z,6.00
2019-03-17T05:09:15.751Z,6.00
2019-03-17T05:11:52.356Z,6.10
2019-03-17T05:14:26.842Z,6.10
2019-03-17T05:17:05.972Z,6.10
2019-03-17T05:19:41.822Z,6.20
2019-03-17T05:22:18.402Z,6.20
2019-03-17T05:24:53.358Z,6.30
2019-03-17T05:27:27.362Z,6.30
2019-03-17T05:30:03.185Z,6.30
2019-03-17T05:32:36.787Z,6.40
2019-03-17T05:35:12.896Z,6.40
2019-03-17T05:37:48.906Z,6.50
2019-03-17T05:40:24.960Z,6.50
2019-03-17T05:42:59.787Z,6.50
2019-03-17T05:45:37.077Z,6.50
2019-03-17T05:48:15.795Z,6.60
2019-03-17T05:50:51.359Z,6.70
2019-03-17T05:53:25.357Z,6.70
2019-03-17T05:56:01.923Z,6.70
2019-03-17T05:58:37.780Z,6.70
2019-03-17T06:01:15.891Z,6.80
2019-03-17T06:03:52.965Z,6.70
2019-03-17T06:06:29.834Z,6.70
2019-03-17T06:09:05.896Z,6.60
2019-03-17T06:11:41.364Z,6.60
2019-03-17T06:14:17.367Z,6.50
2019-03-17T06:16:55.910Z,6.30
2019-03-17T06:19:31.965Z,6.30
2019-03-17T06:22:08.025Z,6.20
2019-03-17T06:24:44.902Z,6.20
2019-03-17T06:27:20.376Z,6.20
2019-03-17T06:29:55.788Z,6.20
2019-03-17T06:32:32.050Z,6.20
2019-03-17T06:35:06.877Z,6.30
2019-03-17T06:37:42.115Z,6.30
2019-03-17T06:40:16.331Z,6.40
2019-03-17T06:43:06.020Z,6.40
2019-03-17T06:45:38.378Z,6.50
2019-03-17T06:48:23.965Z,6.60
2019-03-17T06:51:21.930Z,6.60
2019-03-17T06:53:57.782Z,6.70
2019-03-17T06:56:35.889Z,6.80
2019-03-17T06:59:12.382Z,6.90
2019-03-17T07:01:47.800Z,7.10
2019-03-17T07:04:23.383Z,7.30
2019-03-17T07:06:59.917Z,7.40
2019-03-17T07:09:36.790Z,7.50
2019-03-17T07:12:13.055Z,7.60
2019-03-17T07:14:46.858Z,7.60
2019-03-17T07:17:25.404Z,7.70
2019-03-17T07:20:06.753Z,7.80
2019-03-17T07:22:41.788Z,7.80
2019-03-17T07:25:18.673Z,7.90
2019-03-17T07:27:57.808Z,8.00
2019-03-17T07:30:40.882Z,8.20
2019-03-17T07:33:17.289Z,8.30
2019-03-17T07:35:52.932Z,8.50
2019-03-17T07:38:28.988Z,8.60
2019-03-17T07:41:10.291Z,8.60
2019-03-17T07:43:57.905Z,8.60
2019-03-17T07:46:34.980Z,8.40
2019-03-17T07:49:14.176Z,8.40
2019-03-17T07:51:50.986Z,8.40
2019-03-17T07:54:30.934Z,8.20
2019-03-17T07:57:07.810Z,8.30
2019-03-17T07:59:43.868Z,8.40
2019-03-17T08:02:27.094Z,8.50
2019-03-17T08:05:02.946Z,8.40
2019-03-17T08:07:47.811Z,8.50
2019-03-17T08:10:27.984Z,8.60
2019-03-17T08:16:37.844Z,8.70
2019-03-17T08:19:14.919Z,8.70
2019-03-17T08:21:52.432Z,8.60
2019-03-17T08:24:34.207Z,8.60
2019-03-17T08:27:13.131Z,8.70
2019-03-17T08:30:04.136Z,8.80
2019-03-17T08:32:41.347Z,9.00
2019-03-17T08:35:20.756Z,9.10
2019-03-17T08:41:25.500Z,9.50
2019-03-17T08:44:01.769Z,9.70
2019-03-17T08:50:11.955Z,9.90
2019-03-17T08:52:50.761Z,10.10
2019-03-17T08:55:27.441Z,10.20
2019-03-17T08:58:06.559Z,10.30
2019-03-17T09:00:44.460Z,10.30
2019-03-17T09:03:21.550Z,10.40
2019-03-17T09:05:57.602Z,10.60
2019-03-17T09:08:37.348Z,10.70
2019-03-17T09:11:22.618Z,10.60
2019-03-17T09:13:58.483Z,10.50
2019-03-17T09:16:37.040Z,10.50
2019-03-17T09:19:11.039Z,10.50
2019-03-17T09:21:46.057Z,10.60
2019-03-17T09:24:25.192Z,10.60
2019-03-17T09:30:34.823Z,11.00
2019-03-17T09:33:10.677Z,11.10
2019-03-17T09:35:46.037Z,11.00
2019-03-17T09:38:28.524Z,10.90
2019-03-17T09:41:11.311Z,11.00
2019-03-17T09:43:54.757Z,11.20
2019-03-17T09:46:31.982Z,11.60
2019-03-17T09:49:06.483Z,11.80
2019-03-17T09:51:47.456Z,11.80
2019-03-17T09:54:22.483Z,11.80
2019-03-17T09:57:05.045Z,12.00
2019-03-17T09:59:45.657Z,12.40
2019-03-17T10:02:26.047Z,12.70
2019-03-17T10:05:01.673Z,13.20
2019-03-17T10:07:39.076Z,13.60
2019-03-17T10:10:19.039Z,13.90
2019-03-17T10:12:56.603Z,14.20
2019-03-17T10:15:32.654Z,14.30
2019-03-17T10:18:11.587Z,14.40
2019-03-17T10:20:51.524Z,14.50
2019-03-17T10:27:12.687Z,14.60
2019-03-17T10:29:54.658Z,14.60
2019-03-17T10:35:58.102Z,14.70
2019-03-17T10:41:40.824Z,15.00
2019-03-17T10:47:49.136Z,15.20
2019-03-17T10:50:24.886Z,15.20
2019-03-17T10:52:59.257Z,15.10
2019-03-17T10:59:08.271Z,15.40
2019-03-17T11:01:42.436Z,15.60
2019-03-17T11:04:42.794Z,15.60
2019-03-17T11:07:19.057Z,15.60
2019-03-17T11:09:57.162Z,15.70
2019-03-17T11:16:01.090Z,15.70
2019-03-17T11:18:36.575Z,15.80
2019-03-17T11:21:16.081Z,15.90
2019-03-17T11:23:50.562Z,15.90
2019-03-17T11:26:27.779Z,15.90
2019-03-17T11:29:03.578Z,16.00
2019-03-17T11:35:11.577Z,16.10
2019-03-17T11:41:21.117Z,16.10
2019-03-17T11:44:00.453Z,16.10
2019-03-17T11:46:36.106Z,16.10
2019-03-17T11:49:14.000Z,16.10
2019-03-17T11:51:51.081Z,16.10
2019-03-17T11:58:07.597Z,16.10
2019-03-17T12:00:44.995Z,16.10
2019-03-17T12:03:19.056Z,15.90
2019-03-17T12:05:54.588Z,15.90
2019-03-17T12:08:29.276Z,15.90
2019-03-17T12:14:45.349Z,15.90
2019-03-17T12:17:20.936Z,15.90
2019-03-17T12:19:56.355Z,15.90
2019-03-17T12:22:32.352Z,16.00
2019-03-17T12:25:08.086Z,16.00
2019-03-17T12:31:16.734Z,16.10
2019-03-17T12:33:55.855Z,16.10
2019-03-17T12:36:31.356Z,16.20
2019-03-17T12:39:07.151Z,16.20
2019-03-17T12:41:47.497Z,16.20
2019-03-17T12:44:23.772Z,16.10
2019-03-17T12:47:03.422Z,16.10
2019-03-17T12:49:38.369Z,16.20
2019-03-17T12:52:15.836Z,16.20
2019-03-17T12:54:51.893Z,16.10
2019-03-17T13:01:11.182Z,15.90
2019-03-17T13:03:49.084Z,15.80
2019-03-17T13:09:40.723Z,15.70
2019-03-17T13:22:28.159Z,15.90
2019-03-17T13:25:08.579Z,15.80
2019-03-17T13:30:59.562Z,15.70
2019-03-17T13:37:05.562Z,15.60
2019-03-17T13:43:09.568Z,15.40
2019-03-17T13:49:31.763Z,15.20
2019-03-17T13:52:13.964Z,15.20
2019-03-17T13:54:50.561Z,15.10
2019-03-17T13:57:26.489Z,15.10
2019-03-17T14:09:57.900Z,15.00
2019-03-17T14:12:34.162Z,14.90
2019-03-17T14:15:12.271Z,14.90
2019-03-17T14:17:47.567Z,14.90
2019-03-17T14:20:23.767Z,14.80
2019-03-17T14:23:05.779Z,14.80
2019-03-17T14:25:39.778Z,14.80
2019-03-17T14:28:17.061Z,14.90
2019-03-17T14:30:54.141Z,14.80
2019-03-17T14:33:29.575Z,14.80
2019-03-17T14:36:08.069Z,14.70
2019-03-17T14:38:43.136Z,14.70
2019-03-17T14:41:22.066Z,14.70
2019-03-17T14:43:59.582Z,14.60
2019-03-17T14:46:37.040Z,14.60
2019-03-17T14:49:12.076Z,14.60
2019-03-17T14:51:46.570Z,14.60
2019-03-17T14:54:24.191Z,14.60
2019-03-17T14:57:00.691Z,14.60
2019-03-17T14:59:38.353Z,14.60
2019-03-17T15:02:17.073Z,14.40
2019-03-17T15:04:53.672Z,14.40
2019-03-17T15:07:34.023Z,14.10
2019-03-17T15:10:09.668Z,13.70
2019-03-17T15:12:46.864Z,13.30
2019-03-17T15:15:25.656Z,12.80
2019-03-17T15:18:00.293Z,12.10
2019-03-17T15:20:35.859Z,11.60
2019-03-17T15:23:12.857Z,11.10
2019-03-17T15:25:49.277Z,10.70
2019-03-17T15:31:53.719Z,10.00
2019-03-17T15:37:58.871Z,9.40
2019-03-17T15:43:40.014Z,9.00
2019-03-17T15:49:44.202Z,8.70
2019-03-17T15:55:53.670Z,8.40
2019-03-17T16:01:59.467Z,8.00
2019-03-17T16:04:38.694Z,7.60
2019-03-17T16:07:14.402Z,7.30
2019-03-17T16:09:52.836Z,7.30
2019-03-17T16:12:28.682Z,7.20
2019-03-17T16:15:04.329Z,7.10
2019-03-17T16:17:38.339Z,7.20
2019-03-17T16:20:14.534Z,6.90
2019-03-17T16:22:49.771Z,6.90
2019-03-17T16:25:25.179Z,7.00
2019-03-17T16:27:59.865Z,6.90
2019-03-17T16:30:37.704Z,6.80
2019-03-17T16:33:13.762Z,6.60
2019-03-17T16:35:49.823Z,6.50
2019-03-17T16:38:24.649Z,6.50
2019-03-17T16:41:04.757Z,6.40
2019-03-17T16:43:42.323Z,6.30
2019-03-17T16:46:21.303Z,6.40
2019-03-17T16:48:56.872Z,6.20
2019-03-17T16:51:32.342Z,6.20
2019-03-17T16:54:13.971Z,6.20
2019-03-17T16:56:50.171Z,6.20
2019-03-17T16:59:26.857Z,6.20
2019-03-17T17:05:19.339Z,6.30
2019-03-17T17:07:54.358Z,6.20
2019-03-17T17:10:29.566Z,6.10
2019-03-17T17:13:06.363Z,5.90
2019-03-17T17:22:14.912Z,5.70
2019-03-17T17:24:52.803Z,5.60
2019-03-17T17:31:17.352Z,5.50
2019-03-17T17:37:34.486Z,5.70
2019-03-17T17:40:09.891Z,5.60
2019-03-17T17:42:45.968Z,5.60
2019-03-17T17:45:25.077Z,5.50
2019-03-17T17:48:01.750Z,5.60
2019-03-17T17:50:40.064Z,5.70
2019-03-17T17:53:15.931Z,5.70
2019-03-17T17:56:02.211Z,5.70
2019-03-17T18:02:12.183Z,5.80
2019-03-17T18:04:47.173Z,5.80
2019-03-17T18:07:22.085Z,5.60
2019-03-17T18:09:59.737Z,5.60
2019-03-17T18:12:39.666Z,5.30
2019-03-17T18:15:18.172Z,5.20
2019-03-17T18:17:54.876Z,5.20
2019-03-17T18:20:36.197Z,5.10
2019-03-17T18:23:18.339Z,4.90
2019-03-17T18:25:49.196Z,4.80
2019-03-17T18:28:26.381Z,4.80
2019-03-17T18:31:04.829Z,4.70
2019-03-17T18:33:44.124Z,4.70
2019-03-17T18:36:21.666Z,4.40
2019-03-17T18:38:57.908Z,4.40
2019-03-17T18:41:41.846Z,4.40
2019-03-17T18:44:18.406Z,4.50
2019-03-17T18:47:02.230Z,4.50
2019-03-17T18:49:40.749Z,4.40
2019-03-17T18:52:18.033Z,4.50
2019-03-17T18:58:38.769Z,4.60
2019-03-17T19:01:19.931Z,4.60
2019-03-17T19:03:58.450Z,4.70
2019-03-17T19:06:37.576Z,4.80
2019-03-17T19:09:18.551Z,4.90
2019-03-17T19:11:59.523Z,4.90
2019-03-17T19:14:39.694Z,4.90
2019-03-17T19:17:16.782Z,5.00
2019-03-17T19:23:09.456Z,4.90
2019-03-17T19:29:19.103Z,4.70
2019-03-17T19:31:53.720Z,4.80
2019-03-17T19:34:33.665Z,4.80
2019-03-17T19:37:10.536Z,4.80
2019-03-17T19:39:51.134Z,4.90
2019-03-17T19:42:32.164Z,4.80
2019-03-17T19:48:44.386Z,4.60
2019-03-17T19:51:27.114Z,4.50
2019-03-17T19:57:44.376Z,4.50
2019-03-17T20:04:05.510Z,4.20
2019-03-17T20:10:28.565Z,4.10
2019-03-17T20:13:11.794Z,4.30
2019-03-17T20:19:13.363Z,4.20
2019-03-17T20:25:21.129Z,4.20
2019-03-17T20:31:38.019Z,3.80
2019-03-17T20:44:45.484Z,4.00
2019-03-17T20:47:25.726Z,3.90
2019-03-17T20:53:12.246Z,4.00
2019-03-17T20:59:19.621Z,4.00
2019-03-17T21:05:24.005Z,3.90
2019-03-17T21:11:38.705Z,3.80
2019-03-17T21:17:39.576Z,3.70
2019-03-17T21:26:56.828Z,3.50
2019-03-17T21:32:49.973Z,3.40
2019-03-17T21:35:32.034Z,3.40
2019-03-17T21:38:11.533Z,3.50
2019-03-17T21:41:05.957Z,3.60
2019-03-17T21:43:29.585Z,3.60
2019-03-17T21:46:04.058Z,3.60
2019-03-17T21:48:39.094Z,3.70
2019-03-17T21:54:42.963Z,3.80
2019-03-17T21:57:20.036Z,3.80
2019-03-17T22:03:38.155Z,3.80
2019-03-17T22:10:55.247Z,3.80
2019-03-17T22:13:31.615Z,4.00
2019-03-17T22:19:35.755Z,4.00
2019-03-17T22:25:41.913Z,4.10
2019-03-17T22:31:23.436Z,4.10
2019-03-17T22:37:28.084Z,4.10
2019-03-17T22:40:04.942Z,4.10
2019-03-17T22:42:40.485Z,4.20
2019-03-17T22:45:16.479Z,4.30
2019-03-17T22:47:53.938Z,4.30
2019-03-17T22:50:29.175Z,4.40
2019-03-17T22:53:09.126Z,4.40
2019-03-17T22:55:45.177Z,4.30
2019-03-17T23:02:01.197Z,4.40
2019-03-17T23:08:06.968Z,4.50
2019-03-17T23:10:50.202Z,4.60
2019-03-17T23:13:26.270Z,4.50
2019-03-17T23:16:02.791Z,4.50
2019-03-17T23:18:39.202Z,4.50
2019-03-17T23:21:15.785Z,4.50
2019-03-17T23:23:52.135Z,4.50
2019-03-17T23:29:56.659Z,4.50
2019-03-17T23:35:50.143Z,4.50
2019-03-17T23:41:55.510Z,4.30
2019-03-17T23:48:05.909Z,4.30
2019-03-17T23:54:09.306Z,4.50
2019-03-17T23:56:45.772Z,4.50
2019-03-17T23:59:21.923Z,4.50
